Time;durP1;ratioP1;P1;durP2;ratioP2;P2;SDS_P1;SDS_P2;PMS_P1;PMS_P2;Temp;Humidity;BMP_temperature;BMP_pressure;BME280_temperature;BME280_humidity;BME280_pressure;Samples;Min_cycle;Max_cycle;Signal;HPM_P1;HPM_P2
2024/02/22 00:02:17;;;;;;;31.48;22.13;;;;;;;-145.63;100.00;61273.97;5014656;28;20046;-65
2024/02/22 00:04:43;;;;;;;35.40;24.30;;;;;;;-145.63;100.00;61273.97;5011924;28;20065;-64
2024/02/22 00:07:11;;;;;;;34.22;23.05;;;;;;;-145.63;100.00;61273.97;5012265;28;20061;-65
2024/02/22 00:09:36;;;;;;;33.50;22.88;;;;;;;-145.63;100.00;61273.97;5013803;28;20192;-64
2024/02/22 00:12:03;;;;;;;33.28;22.75;;;;;;;-145.63;100.00;61273.97;5013654;28;20100;-65
2024/02/22 00:14:28;;;;;;;40.38;24.27;;;;;;;-145.63;100.00;61273.97;5015767;28;20069;-63
2024/02/22 00:16:54;;;;;;;32.97;22.55;;;;;;;-145.63;100.00;61273.97;5012550;28;20062;-64
2024/02/22 00:19:20;;;;;;;33.92;23.13;;;;;;;-145.63;100.00;61273.97;5015118;28;20076;-65
2024/02/22 00:21:46;;;;;;;33.95;22.55;;;;;;;-145.63;100.00;61273.97;5013317;28;20053;-65
2024/02/22 00:24:11;;;;;;;33.35;22.27;;;;;;;-145.63;100.00;61273.97;5013684;28;20030;-64
2024/02/22 00:26:37;;;;;;;34.13;22.40;;;;;;;-145.63;100.00;61273.97;5013445;28;20038;-64
2024/02/22 00:29:03;;;;;;;35.40;23.33;;;;;;;-145.63;100.00;61273.97;5015188;28;20036;-64
2024/02/22 00:31:28;;;;;;;34.58;23.55;;;;;;;-145.63;100.00;61273.97;5014796;28;20050;-65
2024/02/22 00:33:54;;;;;;;36.03;23.95;;;;;;;-145.63;100.00;61273.97;5013591;28;20053;-64
2024/02/22 00:36:20;;;;;;;37.17;23.67;;;;;;;-145.63;100.00;61273.97;5012862;28;20056;-65
2024/02/22 00:38:46;;;;;;;33.88;22.45;;;;;;;-145.63;100.00;61273.97;5013142;28;20029;-64
2024/02/22 00:41:11;;;;;;;39.80;24.85;;;;;;;-145.63;100.00;61273.97;5013201;28;20112;-65
2024/02/22 00:43:37;;;;;;;35.95;23.90;;;;;;;-145.63;100.00;61273.97;5013132;28;20033;-66
2024/02/22 00:46:03;;;;;;;33.72;23.63;;;;;;;-145.63;100.00;61273.97;5013406;28;20033;-65
2024/02/22 00:48:29;;;;;;;35.22;23.33;;;;;;;-145.63;100.00;61273.97;5013253;28;20030;-64
2024/02/22 00:50:54;;;;;;;35.65;23.50;;;;;;;-145.63;100.00;61273.97;5012916;28;20510;-64
2024/02/22 00:53:20;;;;;;;35.97;23.67;;;;;;;-145.63;100.00;61273.97;5013170;28;20034;-64
2024/02/22 00:55:46;;;;;;;35.22;23.20;;;;;;;-145.63;100.00;61273.97;5013248;28;20189;-64
2024/02/22 00:58:11;;;;;;;34.33;23.17;;;;;;;-145.63;100.00;61273.97;5011293;28;20030;-64
2024/02/22 01:00:37;;;;;;;36.45;23.20;;;;;;;-145.63;100.00;61273.97;5013792;28;20049;-64
2024/02/22 01:03:07;;;;;;;32.58;22.00;;;;;;;-145.63;100.00;61273.97;5012864;28;20040;-64
2024/02/22 01:05:33;;;;;;;34.00;23.38;;;;;;;-145.63;100.00;61273.97;5011910;28;20030;-64
2024/02/22 01:08:00;;;;;;;38.83;24.33;;;;;;;-145.63;100.00;61273.97;5012696;28;20103;-64
2024/02/22 01:10:25;;;;;;;35.70;23.05;;;;;;;-145.63;100.00;61273.97;5013234;28;20093;-64
2024/02/22 01:12:51;;;;;;;36.70;24.05;;;;;;;-145.63;100.00;61273.97;5012558;28;20105;-64
2024/02/22 01:15:17;;;;;;;37.03;25.02;;;;;;;-145.63;100.00;61273.97;5012614;28;20057;-65
2024/02/22 01:17:43;;;;;;;33.15;22.98;;;;;;;-145.63;100.00;61273.97;5010345;28;20427;-65
2024/02/22 01:20:10;;;;;;;35.95;24.33;;;;;;;-145.63;100.00;61273.97;5013896;28;20109;-65
2024/02/22 01:22:37;;;;;;;36.65;23.85;;;;;;;-145.63;100.00;61273.97;5011178;28;20041;-64
2024/02/22 01:25:03;;;;;;;37.72;24.42;;;;;;;-145.63;100.00;61273.97;5012509;28;20029;-65
2024/02/22 01:27:29;;;;;;;38.25;23.48;;;;;;;-145.63;100.00;61273.97;5011691;28;20030;-64
2024/02/22 01:29:56;;;;;;;36.88;24.65;;;;;;;-145.63;100.00;61273.97;5012666;28;20037;-64
2024/02/22 01:32:21;;;;;;;36.90;25.40;;;;;;;-145.63;100.00;61273.97;5013339;28;20049;-64
2024/02/22 01:34:47;;;;;;;35.20;24.08;;;;;;;-145.63;100.00;61273.97;5012644;28;20126;-63
2024/02/22 01:37:12;;;;;;;35.28;23.52;;;;;;;-145.63;100.00;61273.97;5012748;28;20045;-64
2024/02/22 01:39:38;;;;;;;36.45;23.70;;;;;;;-145.63;100.00;61273.97;5012156;28;20038;-64
2024/02/22 01:42:04;;;;;;;35.53;24.15;;;;;;;-145.63;100.00;61273.97;5012930;28;20042;-63
2024/02/22 01:44:30;;;;;;;37.47;24.67;;;;;;;-145.63;100.00;61273.97;5012721;28;20519;-63
2024/02/22 01:46:56;;;;;;;39.08;24.63;;;;;;;-145.63;100.00;61273.97;5012281;28;20408;-63
2024/02/22 01:49:25;;;;;;;42.08;24.92;;;;;;;-145.63;100.00;61273.97;5012314;28;20058;-64
2024/02/22 01:51:55;;;;;;;36.92;24.08;;;;;;;-145.63;100.00;61273.97;5013452;28;20034;-63
2024/02/22 01:54:21;;;;;;;39.28;24.50;;;;;;;-145.63;100.00;61273.97;5012537;28;20041;-63
2024/02/22 01:56:46;;;;;;;36.67;24.70;;;;;;;-145.63;100.00;61273.97;5010664;28;20066;-64
2024/02/22 01:59:13;;;;;;;39.50;24.48;;;;;;;-145.63;100.00;61273.97;5011752;28;20092;-63
2024/02/22 02:01:41;;;;;;;39.60;25.00;;;;;;;-145.63;100.00;61273.97;5012458;28;20030;-64
2024/02/22 02:04:10;;;;;;;38.42;24.27;;;;;;;-145.63;100.00;61273.97;5012017;28;20042;-64
2024/02/22 02:06:35;;;;;;;38.50;25.05;;;;;;;-145.63;100.00;61273.97;5011851;28;20096;-63
2024/02/22 02:09:02;;;;;;;39.85;25.58;;;;;;;-145.63;100.00;61273.97;5010624;28;20475;-64
2024/02/22 02:11:28;;;;;;;41.80;25.90;;;;;;;-145.63;100.00;61273.97;5014118;28;20028;-63
2024/02/22 02:13:53;;;;;;;38.70;25.80;;;;;;;-145.63;100.00;61273.97;5016427;28;20455;-63
2024/02/22 02:16:19;;;;;;;39.90;25.05;;;;;;;-145.63;100.00;61273.97;5016130;28;20044;-63
2024/02/22 02:18:45;;;;;;;40.97;25.70;;;;;;;-145.63;100.00;61273.97;5015881;28;20030;-63
2024/02/22 02:21:25;;;;;;;43.40;26.88;;;;;;;-145.63;100.00;61273.97;5015230;28;20026;-65
2024/02/22 02:24:26;;;;;;;43.85;26.55;;;;;;;-145.63;100.00;61273.97;5013261;28;20060;-64
2024/02/22 02:26:53;;;;;;;42.10;26.02;;;;;;;-145.63;100.00;61273.97;5011777;28;20472;-64
2024/02/22 02:29:18;;;;;;;41.97;26.25;;;;;;;-145.63;100.00;61273.97;5015864;28;20044;-65
2024/02/22 02:31:44;;;;;;;38.70;24.55;;;;;;;-145.63;100.00;61273.97;5015631;28;20475;-64
2024/02/22 02:34:10;;;;;;;45.47;26.90;;;;;;;-145.63;100.00;61273.97;5016014;28;20042;-65
2024/02/22 02:36:35;;;;;;;81.82;46.28;;;;;;;-145.63;100.00;61273.97;5015425;28;20145;-64
2024/02/22 02:39:01;;;;;;;41.47;25.90;;;;;;;-145.63;100.00;61273.97;5015488;28;20026;-64
2024/02/22 02:41:27;;;;;;;42.75;25.58;;;;;;;-145.63;100.00;61273.97;5014415;28;20080;-64
2024/02/22 02:43:53;;;;;;;41.38;27.35;;;;;;;-145.63;100.00;61273.97;5013919;28;20032;-64
2024/02/22 02:46:18;;;;;;;38.95;24.77;;;;;;;-145.63;100.00;61273.97;5015403;28;20026;-65
2024/02/22 02:48:44;;;;;;;48.05;27.55;;;;;;;-145.63;100.00;61273.97;5015278;28;20030;-64
2024/02/22 02:51:10;;;;;;;40.67;25.40;;;;;;;-145.63;100.00;61273.97;5015391;28;20482;-63
2024/02/22 02:53:35;;;;;;;43.17;26.92;;;;;;;-145.63;100.00;61273.97;5015429;28;21319;-64
2024/02/22 02:56:01;;;;;;;41.58;25.92;;;;;;;-145.63;100.00;61273.97;5015309;28;20087;-64
2024/02/22 02:58:27;;;;;;;41.58;24.85;;;;;;;-145.63;100.00;61273.97;5015472;28;20030;-64
2024/02/22 03:00:52;;;;;;;42.05;25.85;;;;;;;-145.63;100.00;61273.97;5014299;28;20052;-63
2024/02/22 03:03:18;;;;;;;40.17;26.65;;;;;;;-145.63;100.00;61273.97;5013703;28;20030;-64
2024/02/22 03:05:44;;;;;;;42.13;26.77;;;;;;;-145.63;100.00;61273.97;5014767;28;20309;-65
2024/02/22 03:08:09;;;;;;;45.20;27.70;;;;;;;-145.63;100.00;61273.97;5015349;28;20040;-64
2024/02/22 03:10:36;;;;;;;45.17;26.17;;;;;;;-145.63;100.00;61273.97;5014841;28;20439;-64
2024/02/22 03:13:08;;;;;;;44.15;27.13;;;;;;;-145.63;100.00;61273.97;5014973;28;20088;-65
2024/02/22 03:15:35;;;;;;;39.55;26.70;;;;;;;-145.63;100.00;61273.97;5015312;28;20037;-64
2024/02/22 03:18:06;;;;;;;43.20;26.10;;;;;;;-145.63;100.00;61273.97;5015438;28;20041;-64
2024/02/22 03:20:32;;;;;;;41.55;26.35;;;;;;;-145.63;100.00;61273.97;5015546;28;20026;-64
2024/02/22 03:22:58;;;;;;;44.63;26.70;;;;;;;-145.63;100.00;61273.97;5013144;28;20460;-65
2024/02/22 03:25:24;;;;;;;46.90;27.33;;;;;;;-145.63;100.00;61273.97;5014961;28;20026;-64
2024/02/22 03:27:50;;;;;;;43.28;27.55;;;;;;;-145.63;100.00;61273.97;5012921;28;20395;-64
2024/02/22 03:30:16;;;;;;;45.28;27.05;;;;;;;-145.63;100.00;61273.97;5015535;28;20097;-63
2024/02/22 03:32:42;;;;;;;44.42;27.80;;;;;;;-145.63;100.00;61273.97;5014214;28;20045;-64
2024/02/22 03:35:11;;;;;;;44.45;26.98;;;;;;;-145.63;100.00;61273.97;5015038;28;20375;-64
2024/02/22 03:37:38;;;;;;;42.97;26.90;;;;;;;-145.63;100.00;61273.97;5014752;28;20033;-63
2024/02/22 03:40:05;;;;;;;46.17;27.80;;;;;;;-145.63;100.00;61273.97;5014712;28;20022;-63
2024/02/22 03:42:31;;;;;;;42.58;26.80;;;;;;;-145.63;100.00;61273.97;5013816;28;20030;-64
2024/02/22 03:44:57;;;;;;;42.60;27.52;;;;;;;-145.63;100.00;61273.97;5013900;28;20096;-63
2024/02/22 03:47:22;;;;;;;42.10;26.75;;;;;;;-145.63;100.00;61273.97;5013912;28;20108;-64
2024/02/22 03:49:48;;;;;;;43.63;27.00;;;;;;;-145.63;100.00;61273.97;5014569;28;20033;-64
2024/02/22 03:52:14;;;;;;;45.60;27.05;;;;;;;-145.63;100.00;61273.97;5014503;28;20475;-64
2024/02/22 03:54:42;;;;;;;42.90;25.50;;;;;;;-145.63;100.00;61273.97;5014080;28;20032;-65
2024/02/22 03:57:08;;;;;;;41.25;26.55;;;;;;;-145.63;100.00;61273.97;5013603;28;20038;-65
2024/02/22 03:59:33;;;;;;;40.28;25.52;;;;;;;-145.63;100.00;61273.97;5014689;28;20033;-65
2024/02/22 04:01:59;;;;;;;47.47;27.65;;;;;;;-145.63;100.00;61273.97;5013002;28;20097;-64
2024/02/22 04:04:27;;;;;;;45.17;28.27;;;;;;;-145.63;100.00;61273.97;5014170;28;20061;-65
2024/02/22 04:06:53;;;;;;;47.83;27.52;;;;;;;-145.63;100.00;61273.97;5014424;28;20103;-64
2024/02/22 04:09:20;;;;;;;49.88;28.35;;;;;;;-145.63;100.00;61273.97;5012133;28;20029;-65
2024/02/22 04:11:45;;;;;;;42.55;26.80;;;;;;;-145.63;100.00;61273.97;5010387;28;20041;-63
2024/02/22 04:14:11;;;;;;;45.13;28.55;;;;;;;-145.63;100.00;61273.97;5013982;28;20026;-63
2024/02/22 04:16:37;;;;;;;47.80;28.17;;;;;;;-145.63;100.00;61273.97;5013400;28;20048;-66
2024/02/22 04:19:03;;;;;;;46.92;28.33;;;;;;;-145.63;100.00;61273.97;5013398;28;20033;-64
2024/02/22 04:21:29;;;;;;;47.13;27.33;;;;;;;-145.63;100.00;61273.97;5012843;28;20029;-64
2024/02/22 04:23:55;;;;;;;46.65;28.85;;;;;;;-145.63;100.00;61273.97;5012644;28;20045;-64
2024/02/22 04:26:20;;;;;;;45.42;26.55;;;;;;;-145.63;100.00;61273.97;5013256;28;20044;-66
2024/02/22 04:28:46;;;;;;;42.75;26.77;;;;;;;-145.63;100.00;61273.97;5013948;28;20037;-64
2024/02/22 04:31:11;;;;;;;47.63;27.50;;;;;;;-145.63;100.00;61273.97;5013647;28;20032;-64
2024/02/22 04:33:37;;;;;;;49.05;28.10;;;;;;;-145.63;100.00;61273.97;5012282;28;20124;-65
2024/02/22 04:36:03;;;;;;;48.08;27.63;;;;;;;-145.63;100.00;61273.97;5012626;28;20105;-64
2024/02/22 04:38:29;;;;;;;48.78;28.40;;;;;;;-145.63;100.00;61273.97;5013163;28;20034;-64
2024/02/22 04:40:55;;;;;;;46.90;27.80;;;;;;;-145.63;100.00;61273.97;5013327;28;20038;-64
2024/02/22 04:43:22;;;;;;;46.83;28.05;;;;;;;-145.63;100.00;61273.97;5011992;28;20099;-64
2024/02/22 04:45:48;;;;;;;46.55;27.13;;;;;;;-145.63;100.00;61273.97;5013536;28;20095;-64
2024/02/22 04:48:13;;;;;;;47.25;27.55;;;;;;;-145.63;100.00;61273.97;5013263;28;20034;-65
2024/02/22 04:50:39;;;;;;;43.42;27.30;;;;;;;-145.63;100.00;61273.97;5017175;28;20072;-66
2024/02/22 04:53:04;;;;;;;51.22;29.10;;;;;;;-145.63;100.00;61273.97;5013829;28;20042;-64
2024/02/22 04:55:32;;;;;;;45.97;28.52;;;;;;;-145.63;100.00;61273.97;5012774;28;20044;-65
2024/02/22 04:57:59;;;;;;;44.80;27.63;;;;;;;-145.63;100.00;61273.97;5016771;28;20047;-64
2024/02/22 05:00:29;;;;;;;49.67;28.52;;;;;;;-145.63;100.00;61273.97;5012848;28;20033;-64
2024/02/22 05:02:54;;;;;;;52.28;28.33;;;;;;;-145.63;100.00;61273.97;5010930;28;20034;-64
2024/02/22 05:05:20;;;;;;;50.58;30.10;;;;;;;-145.63;100.00;61273.97;5011789;28;20558;-64
2024/02/22 05:07:46;;;;;;;47.72;29.02;;;;;;;-145.63;100.00;61273.97;5014260;28;20080;-65
2024/02/22 05:10:11;;;;;;;45.88;28.13;;;;;;;-145.63;100.00;61273.97;5012901;28;20034;-64
2024/02/22 05:12:37;;;;;;;45.78;27.75;;;;;;;-145.63;100.00;61273.97;5013077;28;20041;-64
2024/02/22 05:15:03;;;;;;;42.83;26.90;;;;;;;-145.63;100.00;61273.97;5013410;28;20113;-65
2024/02/22 05:17:30;;;;;;;48.38;27.75;;;;;;;-145.63;100.00;61273.97;5012722;28;20033;-64
2024/02/22 05:19:57;;;;;;;47.85;28.35;;;;;;;-145.63;100.00;61273.97;5015360;28;20091;-63
2024/02/22 05:22:22;;;;;;;42.95;27.08;;;;;;;-145.63;100.00;61273.97;5014474;28;20045;-64
2024/02/22 05:24:48;;;;;;;46.88;28.02;;;;;;;-145.63;100.00;61273.97;5011855;28;20355;-65
2024/02/22 05:27:14;;;;;;;46.03;27.67;;;;;;;-145.63;100.00;61273.97;5011607;28;20121;-63
2024/02/22 05:29:39;;;;;;;41.85;25.10;;;;;;;-145.63;100.00;61273.97;5012263;28;20029;-65
2024/02/22 05:32:05;;;;;;;48.83;28.92;;;;;;;-145.63;100.00;61273.97;5012693;28;20061;-64
2024/02/22 05:34:34;;;;;;;44.47;27.55;;;;;;;-145.63;100.00;61273.97;5012626;28;20041;-64
2024/02/22 05:36:59;;;;;;;44.33;27.50;;;;;;;-145.63;100.00;61273.97;5012374;28;20042;-64
2024/02/22 05:39:25;;;;;;;53.95;29.35;;;;;;;-145.63;100.00;61273.97;5012375;28;20041;-63
2024/02/22 05:41:53;;;;;;;48.15;28.63;;;;;;;-145.63;100.00;61273.97;5012387;28;20022;-64
2024/02/22 05:44:19;;;;;;;49.47;28.23;;;;;;;-145.63;100.00;61273.97;5012388;28;20036;-64
2024/02/22 05:46:45;;;;;;;47.38;26.00;;;;;;;-145.63;100.00;61273.97;5014861;28;20046;-65
2024/02/22 05:49:11;;;;;;;51.50;27.98;;;;;;;-145.63;100.00;61273.97;5018730;28;20455;-64
2024/02/22 05:51:36;;;;;;;47.28;28.00;;;;;;;-145.63;100.00;61273.97;5018742;28;20042;-65
2024/02/22 05:54:03;;;;;;;47.67;27.23;;;;;;;-145.63;100.00;61273.97;5019236;28;20030;-63
2024/02/22 05:56:34;;;;;;;46.38;27.52;;;;;;;-145.63;100.00;61273.97;5020050;28;20056;-65
2024/02/22 05:59:00;;;;;;;48.90;28.15;;;;;;;-145.63;100.00;61273.97;5018794;28;20072;-65
2024/02/22 06:01:26;;;;;;;50.63;28.20;;;;;;;-145.63;100.00;61273.97;5018363;28;20443;-64
2024/02/22 06:03:51;;;;;;;47.65;28.15;;;;;;;-145.63;100.00;61273.97;5017683;28;20038;-64
2024/02/22 06:06:17;;;;;;;44.85;26.52;;;;;;;-145.63;100.00;61273.97;5017732;28;20379;-64
2024/02/22 06:08:43;;;;;;;47.30;27.73;;;;;;;-145.63;100.00;61273.97;5016971;28;20037;-64
2024/02/22 06:11:18;;;;;;;47.88;27.85;;;;;;;-145.63;100.00;61273.97;5018182;28;20116;-63
2024/02/22 06:13:44;;;;;;;44.97;27.20;;;;;;;-145.63;100.00;61273.97;5014386;28;20048;-64
2024/02/22 06:16:10;;;;;;;49.05;27.02;;;;;;;-145.63;100.00;61273.97;5018427;28;20459;-64
2024/02/22 06:18:35;;;;;;;46.20;26.58;;;;;;;-145.63;100.00;61273.97;5017384;28;20112;-64
2024/02/22 06:21:02;;;;;;;44.53;26.65;;;;;;;-145.63;100.00;61273.97;5018180;28;20112;-65
2024/02/22 06:23:28;;;;;;;53.45;28.35;;;;;;;-145.63;100.00;61273.97;5018556;28;20052;-65
2024/02/22 06:25:56;;;;;;;52.30;28.98;;;;;;;-145.63;100.00;61273.97;5017242;28;20042;-63
2024/02/22 06:28:22;;;;;;;47.20;27.55;;;;;;;-145.63;100.00;61273.97;5017785;28;20037;-63
2024/02/22 06:30:47;;;;;;;42.90;26.50;;;;;;;-145.63;100.00;61273.97;5017991;28;20033;-63
2024/02/22 06:33:19;;;;;;;49.47;28.17;;;;;;;-145.63;100.00;61273.97;5017850;28;20056;-63
2024/02/22 06:35:44;;;;;;;46.15;27.52;;;;;;;-145.63;100.00;61273.97;5018234;28;20030;-65
2024/02/22 06:38:10;;;;;;;46.50;27.25;;;;;;;-145.63;100.00;61273.97;5017906;28;20041;-63
2024/02/22 06:40:47;;;;;;;46.50;26.92;;;;;;;-145.63;100.00;61273.97;5017390;28;20065;-64
2024/02/22 06:43:16;;;;;;;47.95;27.10;;;;;;;-145.63;100.00;61273.97;5018269;28;20034;-64
2024/02/22 06:45:42;;;;;;;45.00;26.15;;;;;;;-145.63;100.00;61273.97;5019802;28;20036;-63
2024/02/22 06:48:10;;;;;;;51.35;27.17;;;;;;;-145.63;100.00;61273.97;5018185;28;20052;-63
2024/02/22 06:50:36;;;;;;;44.65;26.75;;;;;;;-145.63;100.00;61273.97;5018049;28;20656;-64
2024/02/22 06:53:01;;;;;;;45.13;27.02;;;;;;;-145.63;100.00;61273.97;5017883;28;20041;-64
2024/02/22 06:55:27;;;;;;;50.40;29.08;;;;;;;-145.63;100.00;61273.97;5017129;28;20034;-64
2024/02/22 06:57:54;;;;;;;48.20;27.70;;;;;;;-145.63;100.00;61273.97;5014794;28;20030;-64
2024/02/22 07:00:19;;;;;;;44.97;26.58;;;;;;;-145.63;100.00;61273.97;5009883;28;20486;-62
2024/02/22 07:02:45;;;;;;;44.10;26.70;;;;;;;-145.63;100.00;61273.97;5013603;28;20026;-63
2024/02/22 07:05:14;;;;;;;43.80;27.42;;;;;;;-145.63;100.00;61273.97;5013017;28;20086;-66
2024/02/22 07:07:40;;;;;;;44.38;27.55;;;;;;;-145.63;100.00;61273.97;5016077;28;20049;-63
2024/02/22 07:10:07;;;;;;;44.13;26.02;;;;;;;-145.63;100.00;61273.97;5014693;28;20033;-64
2024/02/22 07:12:33;;;;;;;46.83;27.10;;;;;;;-145.63;100.00;61273.97;5015256;28;20037;-65
2024/02/22 07:14:59;;;;;;;42.28;26.38;;;;;;;-145.63;100.00;61273.97;5015382;28;20145;-64
2024/02/22 07:17:24;;;;;;;44.72;26.55;;;;;;;-145.63;100.00;61273.97;5014233;28;20037;-63
2024/02/22 07:19:50;;;;;;;48.60;27.10;;;;;;;-145.63;100.00;61273.97;5012874;28;20038;-63
2024/02/22 07:22:17;;;;;;;45.47;26.77;;;;;;;-145.63;100.00;61273.97;5017731;28;20102;-64
2024/02/22 07:24:43;;;;;;;44.08;25.60;;;;;;;-145.63;100.00;61273.97;5015048;28;20037;-63
2024/02/22 07:27:09;;;;;;;43.05;26.05;;;;;;;-145.63;100.00;61273.97;5015756;28;20125;-64
2024/02/22 07:29:35;;;;;;;46.15;26.58;;;;;;;-145.63;100.00;61273.97;5015647;28;20038;-63
2024/02/22 07:32:04;;;;;;;43.25;27.67;;;;;;;-145.63;100.00;61273.97;5028137;28;20049;-63
2024/02/22 07:34:30;;;;;;;43.65;24.95;;;;;;;-145.63;100.00;61273.97;5012126;28;20038;-64
2024/02/22 07:36:55;;;;;;;46.33;26.02;;;;;;;-145.63;100.00;61273.97;5012492;28;20034;-63
2024/02/22 07:39:21;;;;;;;44.72;25.27;;;;;;;-145.63;100.00;61273.97;5010745;28;20087;-64
2024/02/22 07:41:47;;;;;;;37.95;25.15;;;;;;;-145.63;100.00;61273.97;5015011;28;20352;-64
2024/02/22 07:44:12;;;;;;;46.72;26.98;;;;;;;-145.63;100.00;61273.97;5014727;28;20034;-64
2024/02/22 07:46:39;;;;;;;44.20;25.75;;;;;;;-145.63;100.00;61273.97;5015066;28;20030;-64
2024/02/22 07:49:05;;;;;;;46.92;26.15;;;;;;;-145.63;100.00;61273.97;5019535;28;20422;-67
2024/02/22 07:51:31;;;;;;;46.38;26.77;;;;;;;-145.63;100.00;61273.97;5017224;28;20018;-64
2024/02/22 07:53:57;;;;;;;48.67;28.70;;;;;;;-145.63;100.00;61273.97;5006724;28;20475;-65
2024/02/22 07:56:22;;;;;;;40.70;25.17;;;;;;;-145.63;100.00;61273.97;5030629;28;20091;-63
2024/02/22 07:58:54;;;;;;;47.08;27.88;;;;;;;-145.63;100.00;61273.97;5023897;28;20026;-64
2024/02/22 08:01:20;;;;;;;45.28;27.35;;;;;;;-145.63;100.00;61273.97;5014751;28;20113;-61
2024/02/22 08:03:48;;;;;;;45.92;27.05;;;;;;;-145.63;100.00;61273.97;5014816;28;20118;-64
2024/02/22 08:06:14;;;;;;;44.75;28.35;;;;;;;-145.63;100.00;61273.97;5015231;28;20100;-63
2024/02/22 08:08:40;;;;;;;47.22;27.10;;;;;;;-145.63;100.00;61273.97;5024855;28;20415;-63
2024/02/22 08:11:07;;;;;;;48.95;28.13;;;;;;;-145.63;100.00;61273.97;5007602;28;20035;-64
2024/02/22 08:13:32;;;;;;;45.60;26.48;;;;;;;-145.63;100.00;61273.97;5003992;28;20173;-63
2024/02/22 08:16:03;;;;;;;51.05;27.05;;;;;;;-145.63;100.00;61273.97;5013845;28;20029;-63
2024/02/22 08:18:29;;;;;;;45.53;28.42;;;;;;;-145.63;100.00;61273.97;5014787;28;20479;-63
2024/02/22 08:20:55;;;;;;;46.78;28.42;;;;;;;-145.63;100.00;61273.97;5014420;28;20515;-63
2024/02/22 08:23:21;;;;;;;44.70;27.52;;;;;;;-145.63;100.00;61273.97;5003997;28;20037;-64
2024/02/22 08:25:47;;;;;;;49.88;29.63;;;;;;;-145.63;100.00;61273.97;5014776;28;20412;-63
2024/02/22 08:28:13;;;;;;;45.47;26.60;;;;;;;-145.63;100.00;61273.97;5017026;28;20040;-62
2024/02/22 08:30:39;;;;;;;51.88;29.40;;;;;;;-145.63;100.00;61273.97;5012850;28;20127;-63
2024/02/22 08:33:05;;;;;;;50.58;28.95;;;;;;;-145.63;100.00;61273.97;5014353;28;20041;-63
2024/02/22 08:35:31;;;;;;;46.50;27.92;;;;;;;-145.63;100.00;61273.97;5014705;28;20133;-63
2024/02/22 08:37:57;;;;;;;46.50;27.10;;;;;;;-145.63;100.00;61273.97;5014930;28;20069;-63
2024/02/22 08:40:22;;;;;;;47.15;27.48;;;;;;;-145.63;100.00;61273.97;5014748;28;20042;-62
2024/02/22 08:42:48;;;;;;;49.47;28.35;;;;;;;-145.63;100.00;61273.97;5012485;28;20029;-63
2024/02/22 08:45:18;;;;;;;45.88;27.00;;;;;;;-145.63;100.00;61273.97;5012959;28;20494;-64
2024/02/22 08:47:44;;;;;;;44.13;28.52;;;;;;;-145.63;100.00;61273.97;5013830;28;20036;-63
2024/02/22 08:50:13;;;;;;;47.90;27.38;;;;;;;-145.63;100.00;61273.97;5019455;28;20160;-64
2024/02/22 08:52:42;;;;;;;44.83;27.85;;;;;;;-145.63;100.00;61273.97;5014354;28;20030;-62
2024/02/22 08:55:09;;;;;;;46.42;27.30;;;;;;;-145.63;100.00;61273.97;5010709;28;20105;-63
2024/02/22 08:57:35;;;;;;;48.65;27.60;;;;;;;-145.63;100.00;61273.97;4994658;28;20476;-63
2024/02/22 09:00:00;;;;;;;48.28;28.08;;;;;;;-145.63;100.00;61273.97;5013606;28;20096;-65
2024/02/22 09:02:26;;;;;;;46.38;26.70;;;;;;;-145.63;100.00;61273.97;4998606;28;20049;-63
2024/02/22 09:04:52;;;;;;;48.47;28.10;;;;;;;-145.63;100.00;61273.97;5008170;28;20038;-63
2024/02/22 09:07:17;;;;;;;52.15;29.08;;;;;;;-145.63;100.00;61273.97;5013987;28;20096;-64
2024/02/22 09:09:45;;;;;;;48.97;28.35;;;;;;;-145.63;100.00;61273.97;5013259;28;20025;-64
2024/02/22 09:12:12;;;;;;;44.33;27.88;;;;;;;-145.63;100.00;61273.97;5014197;28;20029;-63
2024/02/22 09:14:38;;;;;;;46.22;27.70;;;;;;;-145.63;100.00;61273.97;5012233;28;20030;-63
2024/02/22 09:17:04;;;;;;;45.95;28.10;;;;;;;-145.63;100.00;61273.97;5013463;28;20501;-63
2024/02/22 09:19:30;;;;;;;47.90;25.92;;;;;;;-145.63;100.00;61273.97;5014196;28;20038;-63
2024/02/22 09:21:59;;;;;;;47.90;28.10;;;;;;;-145.63;100.00;61273.97;5010802;28;20034;-63
2024/02/22 09:24:25;;;;;;;45.03;28.05;;;;;;;-145.63;100.00;61273.97;5003450;28;20025;-64
2024/02/22 09:26:51;;;;;;;47.75;27.80;;;;;;;-145.63;100.00;61273.97;5012722;28;20061;-64
2024/02/22 09:29:16;;;;;;;51.58;28.15;;;;;;;-145.63;100.00;61273.97;5009153;28;20061;-64
2024/02/22 09:31:42;;;;;;;44.83;26.80;;;;;;;-145.63;100.00;61273.97;5013538;28;20132;-64
2024/02/22 09:34:08;;;;;;;44.40;26.27;;;;;;;-145.63;100.00;61273.97;5016647;28;20598;-64
2024/02/22 09:36:33;;;;;;;45.70;28.40;;;;;;;-145.63;100.00;61273.97;5017782;28;20480;-64
2024/02/22 09:38:59;;;;;;;49.83;28.52;;;;;;;-145.63;100.00;61273.97;5004446;28;20072;-63
2024/02/22 09:41:26;;;;;;;45.67;27.48;;;;;;;-145.63;100.00;61273.97;5012348;28;20057;-63
2024/02/22 09:43:56;;;;;;;46.83;27.88;;;;;;;-145.63;100.00;61273.97;5006717;28;20032;-64
2024/02/22 09:46:23;;;;;;;50.17;29.13;;;;;;;-145.63;100.00;61273.97;5013067;28;20471;-64
2024/02/22 09:48:48;;;;;;;53.50;28.50;;;;;;;-145.63;100.00;61273.97;5014154;28;20076;-65
2024/02/22 09:51:15;;;;;;;48.33;28.38;;;;;;;-145.63;100.00;61273.97;5016585;28;20383;-65
2024/02/22 09:53:44;;;;;;;47.20;28.88;;;;;;;-145.63;100.00;61273.97;5008906;28;20455;-63
2024/02/22 09:56:13;;;;;;;47.90;27.73;;;;;;;-145.63;100.00;61273.97;5011223;28;20040;-64
2024/02/22 09:58:39;;;;;;;44.17;27.15;;;;;;;-145.63;100.00;61273.97;5020539;28;20044;-66
2024/02/22 10:01:05;;;;;;;49.22;27.35;;;;;;;-145.63;100.00;61273.97;5014088;28;20463;-63
2024/02/22 10:03:34;;;;;;;47.90;28.63;;;;;;;-145.63;100.00;61273.97;4998619;28;20501;-65
2024/02/22 10:06:01;;;;;;;51.20;29.17;;;;;;;-145.63;100.00;61273.97;5011994;28;20061;-65
2024/02/22 10:08:26;;;;;;;44.92;26.88;;;;;;;-145.63;100.00;61273.97;5013187;28;20038;-63
2024/02/22 10:11:04;;;;;;;44.50;26.98;;;;;;;-145.63;100.00;61273.97;5022515;28;20036;-64
2024/02/22 10:13:29;;;;;;;45.97;26.42;;;;;;;-145.63;100.00;61273.97;5010435;28;20109;-63
2024/02/22 10:15:55;;;;;;;44.15;27.52;;;;;;;-145.63;100.00;61273.97;5012419;28;20109;-63
2024/02/22 10:18:25;;;;;;;46.85;28.65;;;;;;;-145.63;100.00;61273.97;5012258;28;20038;-65
2024/02/22 10:20:51;;;;;;;44.10;26.67;;;;;;;-145.63;100.00;61273.97;5012796;28;20041;-63
2024/02/22 10:23:18;;;;;;;43.78;26.92;;;;;;;-145.63;100.00;61273.97;5012213;28;20038;-63
2024/02/22 10:25:44;;;;;;;42.97;26.17;;;;;;;-145.63;100.00;61273.97;5009737;28;20041;-64
2024/02/22 10:28:14;;;;;;;43.67;26.13;;;;;;;-145.63;100.00;61273.97;5010519;28;20046;-62
2024/02/22 10:30:40;;;;;;;42.92;26.17;;;;;;;-145.63;100.00;61273.97;5012134;28;20105;-64
2024/02/22 10:33:06;;;;;;;42.75;26.45;;;;;;;-145.63;100.00;61273.97;5009515;28;20050;-63
2024/02/22 10:35:34;;;;;;;43.38;26.83;;;;;;;-145.63;100.00;61273.97;5014957;28;20113;-64
2024/02/22 10:38:03;;;;;;;45.15;26.42;;;;;;;-145.63;100.00;61273.97;5016203;28;20030;-65
2024/02/22 10:40:29;;;;;;;44.58;26.83;;;;;;;-145.63;100.00;61273.97;5015118;28;20048;-65
2024/02/22 10:42:55;;;;;;;41.25;26.33;;;;;;;-145.63;100.00;61273.97;5008607;28;20460;-66
2024/02/22 10:45:21;;;;;;;39.83;25.27;;;;;;;-145.63;100.00;61273.97;5016179;28;20451;-65
2024/02/22 10:47:51;;;;;;;43.30;26.80;;;;;;;-145.63;100.00;61273.97;5015117;28;20026;-65
2024/02/22 10:50:22;;;;;;;43.17;26.50;;;;;;;-145.63;100.00;61273.97;5015205;28;20026;-65
2024/02/22 10:52:52;;;;;;;43.70;26.55;;;;;;;-145.63;100.00;61273.97;5015741;28;20107;-65